sensor_id;sensor_type;location;lat;lon;timestamp;pressure;altitude;pressure_sealevel;temperature;humidity
34177;BME280;20450;49.074;9.158;2022-12-16T00:01:08;98659.53;;;-0.91;81.79
34177;BME280;20450;49.074;9.158;2022-12-16T00:03:39;98659.19;;;-0.88;82.11
34177;BME280;20450;49.074;9.158;2022-12-16T00:06:08;98657.25;;;-0.94;81.85
34177;BME280;20450;49.074;9.158;2022-12-16T00:08:37;98663.69;;;-0.88;82.16
34177;BME280;20450;49.074;9.158;2022-12-16T00:11:05;98667.50;;;-0.83;81.95
34177;BME280;20450;49.074;9.158;2022-12-16T00:13:35;98669.31;;;-0.83;82.26
34177;BME280;20450;49.074;9.158;2022-12-16T00:16:04;98668.84;;;-0.87;82.69
34177;BME280;20450;49.074;9.158;2022-12-16T00:18:33;98667.16;;;-0.80;82.92
34177;BME280;20450;49.074;9.158;2022-12-16T00:21:02;98669.31;;;-0.75;83.12
34177;BME280;20450;49.074;9.158;2022-12-16T00:23:30;98667.00;;;-0.78;82.47
34177;BME280;20450;49.074;9.158;2022-12-16T00:25:59;98671.78;;;-0.74;83.24
34177;BME280;20450;49.074;9.158;2022-12-16T00:28:26;98671.78;;;-0.74;82.95
34177;BME280;20450;49.074;9.158;2022-12-16T00:30:54;98678.56;;;-0.71;82.94
34177;BME280;20450;49.074;9.158;2022-12-16T00:33:23;98684.72;;;-0.71;84.05
34177;BME280;20450;49.074;9.158;2022-12-16T00:35:51;98677.09;;;-0.66;84.15
34177;BME280;20450;49.074;9.158;2022-12-16T00:38:23;98687.53;;;-0.80;84.67
34177;BME280;20450;49.074;9.158;2022-12-16T00:40:51;98682.09;;;-0.87;84.26
34177;BME280;20450;49.074;9.158;2022-12-16T00:43:19;98685.72;;;-0.80;84.59
34177;BME280;20450;49.074;9.158;2022-12-16T00:45:47;98696.31;;;-0.72;85.32
34177;BME280;20450;49.074;9.158;2022-12-16T00:48:14;98690.53;;;-0.75;85.39
34177;BME280;20450;49.074;9.158;2022-12-16T00:50:43;98698.63;;;-0.77;84.90
34177;BME280;20450;49.074;9.158;2022-12-16T00:53:14;98702.28;;;-0.78;85.06
34177;BME280;20450;49.074;9.158;2022-12-16T00:55:42;98703.78;;;-0.75;85.12
34177;BME280;20450;49.074;9.158;2022-12-16T00:58:09;98696.81;;;-0.76;85.12
34177;BME280;20450;49.074;9.158;2022-12-16T01:00:36;98703.94;;;-0.77;85.60
34177;BME280;20450;49.074;9.158;2022-12-16T01:03:04;98705.75;;;-0.77;85.71
34177;BME280;20450;49.074;9.158;2022-12-16T01:05:31;98710.88;;;-0.76;85.99
34177;BME280;20450;49.074;9.158;2022-12-16T01:07:58;98711.56;;;-0.74;85.39
34177;BME280;20450;49.074;9.158;2022-12-16T01:10:25;98719.66;;;-0.83;85.02
34177;BME280;20450;49.074;9.158;2022-12-16T01:12:53;98719.19;;;-0.87;85.38
34177;BME280;20450;49.074;9.158;2022-12-16T01:15:20;98727.63;;;-0.91;85.26
34177;BME280;20450;49.074;9.158;2022-12-16T01:17:48;98732.13;;;-1.00;85.47
34177;BME280;20450;49.074;9.158;2022-12-16T01:20:14;98726.97;;;-0.93;85.77
34177;BME280;20450;49.074;9.158;2022-12-16T01:22:41;98730.94;;;-0.89;85.29
34177;BME280;20450;49.074;9.158;2022-12-16T01:25:10;98734.59;;;-0.90;84.84
34177;BME280;20450;49.074;9.158;2022-12-16T01:27:37;98732.59;;;-0.88;84.37
34177;BME280;20450;49.074;9.158;2022-12-16T01:30:07;98734.75;;;-0.84;84.34
34177;BME280;20450;49.074;9.158;2022-12-16T01:32:36;98734.09;;;-0.86;83.76
34177;BME280;20450;49.074;9.158;2022-12-16T01:35:04;98733.59;;;-0.89;84.28
34177;BME280;20450;49.074;9.158;2022-12-16T01:37:51;98726.81;;;-0.92;84.65
34177;BME280;20450;49.074;9.158;2022-12-16T01:40:22;98719.34;;;-0.88;84.66
34177;BME280;20450;49.074;9.158;2022-12-16T01:42:50;98715.03;;;-0.89;83.95
34177;BME280;20450;49.074;9.158;2022-12-16T01:45:33;98717.84;;;-0.83;83.59
34177;BME280;20450;49.074;9.158;2022-12-16T01:48:06;98721.81;;;-0.79;83.47
34177;BME280;20450;49.074;9.158;2022-12-16T01:50:43;98727.81;;;-0.77;83.15
34177;BME280;20450;49.074;9.158;2022-12-16T01:53:11;98722.00;;;-0.72;83.43
34177;BME280;20450;49.074;9.158;2022-12-16T01:55:42;98728.28;;;-0.65;83.26
34177;BME280;20450;49.074;9.158;2022-12-16T01:58:17;98726.13;;;-0.62;83.23
34177;BME280;20450;49.074;9.158;2022-12-16T02:00:49;98729.13;;;-0.65;82.95
34177;BME280;20450;49.074;9.158;2022-12-16T02:03:17;98730.28;;;-0.59;83.29
34177;BME280;20450;49.074;9.158;2022-12-16T02:05:45;98728.63;;;-0.52;83.01
34177;BME280;20450;49.074;9.158;2022-12-16T02:08:15;98738.53;;;-0.46;83.31
34177;BME280;20450;49.074;9.158;2022-12-16T02:10:53;98745.03;;;-0.41;83.51
34177;BME280;20450;49.074;9.158;2022-12-16T02:13:41;98744.69;;;-0.38;82.95
34177;BME280;20450;49.074;9.158;2022-12-16T02:16:31;98745.31;;;-0.36;83.51
34177;BME280;20450;49.074;9.158;2022-12-16T02:19:23;98736.22;;;-0.33;83.32
34177;BME280;20450;49.074;9.158;2022-12-16T02:22:17;98744.66;;;-0.30;83.57
34177;BME280;20450;49.074;9.158;2022-12-16T02:25:10;98754.78;;;-0.33;83.02
34177;BME280;20450;49.074;9.158;2022-12-16T02:28:02;98752.47;;;-0.36;83.34
34177;BME280;20450;49.074;9.158;2022-12-16T02:30:45;98747.66;;;-0.33;83.23
34177;BME280;20450;49.074;9.158;2022-12-16T02:33:31;98748.97;;;-0.29;83.61
34177;BME280;20450;49.074;9.158;2022-12-16T02:36:13;98749.63;;;-0.27;83.28
34177;BME280;20450;49.074;9.158;2022-12-16T02:38:54;98753.28;;;-0.28;82.88
34177;BME280;20450;49.074;9.158;2022-12-16T02:41:31;98747.31;;;-0.30;83.03
34177;BME280;20450;49.074;9.158;2022-12-16T02:44:08;98756.59;;;-0.26;83.27
34177;BME280;20450;49.074;9.158;2022-12-16T02:46:40;98752.09;;;-0.25;83.02
34177;BME280;20450;49.074;9.158;2022-12-16T02:52:20;98754.13;;;-0.27;82.56
34177;BME280;20450;49.074;9.158;2022-12-16T02:55:05;98752.28;;;-0.27;82.35
34177;BME280;20450;49.074;9.158;2022-12-16T02:58:07;98759.25;;;-0.26;82.67
34177;BME280;20450;49.074;9.158;2022-12-16T03:00:50;98760.91;;;-0.25;82.50
34177;BME280;20450;49.074;9.158;2022-12-16T03:03:29;98769.53;;;-0.23;81.75
34177;BME280;20450;49.074;9.158;2022-12-16T03:06:04;98772.66;;;-0.19;81.77
34177;BME280;20450;49.074;9.158;2022-12-16T03:08:36;98780.00;;;-0.21;81.76
34177;BME280;20450;49.074;9.158;2022-12-16T03:11:06;98772.84;;;-0.21;81.44
34177;BME280;20450;49.074;9.158;2022-12-16T03:13:36;98770.19;;;-0.21;81.59
34177;BME280;20450;49.074;9.158;2022-12-16T03:16:09;98772.50;;;-0.18;81.18
34177;BME280;20450;49.074;9.158;2022-12-16T03:18:43;98769.69;;;-0.16;81.27
34177;BME280;20450;49.074;9.158;2022-12-16T03:21:16;98778.81;;;-0.19;81.46
34177;BME280;20450;49.074;9.158;2022-12-16T03:23:50;98783.94;;;-0.17;81.20
34177;BME280;20450;49.074;9.158;2022-12-16T03:26:22;98783.78;;;-0.16;81.02
34177;BME280;20450;49.074;9.158;2022-12-16T03:28:54;98785.44;;;-0.15;81.34
34177;BME280;20450;49.074;9.158;2022-12-16T03:31:32;98787.09;;;-0.14;80.91
34177;BME280;20450;49.074;9.158;2022-12-16T03:34:10;98787.91;;;-0.13;80.45
34177;BME280;20450;49.074;9.158;2022-12-16T03:36:48;98782.44;;;-0.12;80.37
34177;BME280;20450;49.074;9.158;2022-12-16T03:39:20;98785.75;;;-0.10;80.42
34177;BME280;20450;49.074;9.158;2022-12-16T03:41:51;98786.59;;;-0.09;80.18
34177;BME280;20450;49.074;9.158;2022-12-16T03:44:21;98786.78;;;-0.11;79.58
34177;BME280;20450;49.074;9.158;2022-12-16T03:46:49;98786.44;;;-0.08;80.44
34177;BME280;20450;49.074;9.158;2022-12-16T03:49:18;98794.69;;;-0.03;80.11
34177;BME280;20450;49.074;9.158;2022-12-16T03:51:47;98791.72;;;0.00;79.62
34177;BME280;20450;49.074;9.158;2022-12-16T03:54:14;98796.00;;;0.01;79.13
34177;BME280;20450;49.074;9.158;2022-12-16T03:56:41;98801.31;;;0.01;79.39
34177;BME280;20450;49.074;9.158;2022-12-16T03:59:08;98808.31;;;0.03;79.36
34177;BME280;20450;49.074;9.158;2022-12-16T04:01:39;98806.28;;;0.04;79.60
34177;BME280;20450;49.074;9.158;2022-12-16T04:04:06;98808.59;;;0.08;79.75
34177;BME280;20450;49.074;9.158;2022-12-16T04:06:34;98814.94;;;0.07;79.01
34177;BME280;20450;49.074;9.158;2022-12-16T04:09:01;98828.03;;;0.08;78.96
34177;BME280;20450;49.074;9.158;2022-12-16T04:11:28;98827.88;;;0.10;79.31
34177;BME280;20450;49.074;9.158;2022-12-16T04:13:55;98826.38;;;0.07;79.63
34177;BME280;20450;49.074;9.158;2022-12-16T04:16:25;98825.22;;;0.10;79.21
34177;BME280;20450;49.074;9.158;2022-12-16T04:18:55;98824.38;;;0.09;79.16
34177;BME280;20450;49.074;9.158;2022-12-16T04:21:21;98821.06;;;0.07;79.55
34177;BME280;20450;49.074;9.158;2022-12-16T04:23:52;98818.59;;;0.06;79.89
34177;BME280;20450;49.074;9.158;2022-12-16T04:26:22;98827.03;;;0.09;80.07
34177;BME280;20450;49.074;9.158;2022-12-16T04:28:49;98826.84;;;0.11;80.41
34177;BME280;20450;49.074;9.158;2022-12-16T04:31:16;98830.69;;;0.08;80.85
34177;BME280;20450;49.074;9.158;2022-12-16T04:33:43;98840.31;;;0.09;81.16
34177;BME280;20450;49.074;9.158;2022-12-16T04:36:10;98832.16;;;0.11;81.29
34177;BME280;20450;49.074;9.158;2022-12-16T04:38:37;98833.00;;;0.11;81.21
34177;BME280;20450;49.074;9.158;2022-12-16T04:41:05;98831.19;;;0.12;80.80
34177;BME280;20450;49.074;9.158;2022-12-16T04:43:33;98837.13;;;0.14;81.06
34177;BME280;20450;49.074;9.158;2022-12-16T04:46:00;98833.00;;;0.11;81.28
34177;BME280;20450;49.074;9.158;2022-12-16T04:48:27;98840.81;;;0.13;80.97
34177;BME280;20450;49.074;9.158;2022-12-16T04:50:54;98844.97;;;0.07;81.48
34177;BME280;20450;49.074;9.158;2022-12-16T04:53:21;98837.81;;;0.08;81.65
34177;BME280;20450;49.074;9.158;2022-12-16T04:55:48;98845.59;;;0.09;81.33
34177;BME280;20450;49.074;9.158;2022-12-16T04:58:16;98843.63;;;0.11;81.08
34177;BME280;20450;49.074;9.158;2022-12-16T05:00:44;98848.94;;;0.11;80.79
34177;BME280;20450;49.074;9.158;2022-12-16T05:03:12;98850.09;;;0.09;80.89
34177;BME280;20450;49.074;9.158;2022-12-16T05:05:39;98850.28;;;0.07;81.21
34177;BME280;20450;49.074;9.158;2022-12-16T05:08:06;98861.72;;;0.08;81.01
34177;BME280;20450;49.074;9.158;2022-12-16T05:10:33;98862.72;;;0.07;81.17
34177;BME280;20450;49.074;9.158;2022-12-16T05:13:00;98865.19;;;0.08;81.13
34177;BME280;20450;49.074;9.158;2022-12-16T05:15:28;98869.34;;;0.11;80.78
34177;BME280;20450;49.074;9.158;2022-12-16T05:17:55;98868.03;;;0.15;81.13
34177;BME280;20450;49.074;9.158;2022-12-16T05:20:22;98878.47;;;0.16;80.57
34177;BME280;20450;49.074;9.158;2022-12-16T05:22:49;98886.44;;;0.16;80.76
34177;BME280;20450;49.074;9.158;2022-12-16T05:25:16;98884.13;;;0.13;80.74
34177;BME280;20450;49.074;9.158;2022-12-16T05:27:42;98890.25;;;0.14;80.56
34177;BME280;20450;49.074;9.158;2022-12-16T05:30:11;98892.91;;;0.14;81.10
34177;BME280;20450;49.074;9.158;2022-12-16T05:32:39;98895.38;;;0.15;81.05
34177;BME280;20450;49.074;9.158;2022-12-16T05:35:06;98890.25;;;0.14;80.82
34177;BME280;20450;49.074;9.158;2022-12-16T05:37:33;98897.22;;;0.15;80.94
34177;BME280;20450;49.074;9.158;2022-12-16T05:40:00;98897.22;;;0.15;81.12
34177;BME280;20450;49.074;9.158;2022-12-16T05:42:27;98894.75;;;0.13;80.79
34177;BME280;20450;49.074;9.158;2022-12-16T05:44:53;98905.38;;;0.13;80.66
34177;BME280;20450;49.074;9.158;2022-12-16T05:47:21;98911.47;;;0.14;80.55
34177;BME280;20450;49.074;9.158;2022-12-16T05:49:49;98909.66;;;0.14;80.89
34177;BME280;20450;49.074;9.158;2022-12-16T05:52:16;98919.97;;;0.17;80.40
34177;BME280;20450;49.074;9.158;2022-12-16T05:54:43;98928.75;;;0.18;80.89
34177;BME280;20450;49.074;9.158;2022-12-16T05:57:10;98937.38;;;0.20;80.64
34177;BME280;20450;49.074;9.158;2022-12-16T05:59:37;98939.06;;;0.21;80.59
34177;BME280;20450;49.074;9.158;2022-12-16T06:02:04;98941.03;;;0.19;80.18
34177;BME280;20450;49.074;9.158;2022-12-16T06:04:32;98944.69;;;0.18;80.95
34177;BME280;20450;49.074;9.158;2022-12-16T06:07:00;98948.31;;;0.17;80.77
34177;BME280;20450;49.074;9.158;2022-12-16T06:09:29;98955.66;;;0.15;80.76
34177;BME280;20450;49.074;9.158;2022-12-16T06:11:56;98952.81;;;0.16;80.76
34177;BME280;20450;49.074;9.158;2022-12-16T06:14:23;98960.13;;;0.14;81.23
34177;BME280;20450;49.074;9.158;2022-12-16T06:16:50;98964.91;;;0.11;81.06
34177;BME280;20450;49.074;9.158;2022-12-16T06:19:17;98964.28;;;0.09;81.07
34177;BME280;20450;49.074;9.158;2022-12-16T06:21:44;98969.41;;;0.10;80.59
34177;BME280;20450;49.074;9.158;2022-12-16T06:24:14;98970.56;;;0.08;79.63
34177;BME280;20450;49.074;9.158;2022-12-16T06:29:48;98969.75;;;0.07;79.39
34177;BME280;20450;49.074;9.158;2022-12-16T06:32:15;98984.00;;;0.06;79.38
34177;BME280;20450;49.074;9.158;2022-12-16T06:34:42;98982.34;;;0.05;79.92
34177;BME280;20450;49.074;9.158;2022-12-16T06:37:09;98980.38;;;0.07;80.43
34177;BME280;20450;49.074;9.158;2022-12-16T06:39:37;98994.63;;;0.06;80.48
34177;BME280;20450;49.074;9.158;2022-12-16T06:42:04;99004.09;;;0.09;80.66
34177;BME280;20450;49.074;9.158;2022-12-16T06:44:31;98999.94;;;0.06;80.53
34177;BME280;20450;49.074;9.158;2022-12-16T06:46:58;99011.38;;;0.07;80.24
34177;BME280;20450;49.074;9.158;2022-12-16T06:49:25;99018.19;;;0.01;80.05
34177;BME280;20450;49.074;9.158;2022-12-16T06:51:52;99018.03;;;0.03;80.22
34177;BME280;20450;49.074;9.158;2022-12-16T06:54:19;99022.66;;;0.00;79.45
34177;BME280;20450;49.074;9.158;2022-12-16T06:56:47;99030.13;;;-0.03;79.56
34177;BME280;20450;49.074;9.158;2022-12-16T06:59:14;99029.97;;;-0.02;79.39
34177;BME280;20450;49.074;9.158;2022-12-16T07:01:41;99036.25;;;-0.03;79.61
34177;BME280;20450;49.074;9.158;2022-12-16T07:04:08;99040.25;;;-0.07;78.61
34177;BME280;20450;49.074;9.158;2022-12-16T07:06:35;99047.53;;;-0.17;77.91
34177;BME280;20450;49.074;9.158;2022-12-16T07:09:02;99056.13;;;-0.23;77.53
34177;BME280;20450;49.074;9.158;2022-12-16T07:11:29;99062.94;;;-0.20;77.89
34177;BME280;20450;49.074;9.158;2022-12-16T07:13:58;99055.97;;;-0.21;77.70
34177;BME280;20450;49.074;9.158;2022-12-16T07:16:25;99068.75;;;-0.17;78.25
34177;BME280;20450;49.074;9.158;2022-12-16T07:18:52;99066.59;;;-0.13;77.50
34177;BME280;20450;49.074;9.158;2022-12-16T07:21:18;99076.06;;;-0.11;77.13
34177;BME280;20450;49.074;9.158;2022-12-16T07:23:45;99071.72;;;-0.12;76.97
34177;BME280;20450;49.074;9.158;2022-12-16T07:26:12;99083.34;;;-0.13;77.66
34177;BME280;20450;49.074;9.158;2022-12-16T07:28:39;99086.16;;;-0.14;77.28
34177;BME280;20450;49.074;9.158;2022-12-16T07:31:08;99088.81;;;-0.14;78.15
34177;BME280;20450;49.074;9.158;2022-12-16T07:33:35;99091.63;;;-0.16;77.31
34177;BME280;20450;49.074;9.158;2022-12-16T07:36:02;99096.25;;;-0.18;77.33
34177;BME280;20450;49.074;9.158;2022-12-16T07:38:29;99107.19;;;-0.21;77.39
34177;BME280;20450;49.074;9.158;2022-12-16T07:40:56;99103.53;;;-0.28;77.07
34177;BME280;20450;49.074;9.158;2022-12-16T07:43:23;99103.22;;;-0.25;77.50
34177;BME280;20450;49.074;9.158;2022-12-16T07:45:50;99113.81;;;-0.25;77.09
34177;BME280;20450;49.074;9.158;2022-12-16T07:48:19;99112.16;;;-0.26;76.65
34177;BME280;20450;49.074;9.158;2022-12-16T07:50:46;99117.47;;;-0.26;77.46
34177;BME280;20450;49.074;9.158;2022-12-16T07:53:13;99116.63;;;-0.26;77.07
34177;BME280;20450;49.074;9.158;2022-12-16T07:55:40;99132.41;;;-0.25;76.98
34177;BME280;20450;49.074;9.158;2022-12-16T07:58:08;99125.28;;;-0.24;76.91
34177;BME280;20450;49.074;9.158;2022-12-16T08:00:37;99127.78;;;-0.23;76.97
34177;BME280;20450;49.074;9.158;2022-12-16T08:03:04;99128.25;;;-0.19;76.50
34177;BME280;20450;49.074;9.158;2022-12-16T08:05:33;99134.41;;;-0.19;76.46
34177;BME280;20450;49.074;9.158;2022-12-16T08:07:59;99135.06;;;-0.25;75.86
34177;BME280;20450;49.074;9.158;2022-12-16T08:10:26;99146.66;;;-0.26;76.68
34177;BME280;20450;49.074;9.158;2022-12-16T08:12:58;99156.22;;;-0.33;76.84
34177;BME280;20450;49.074;9.158;2022-12-16T08:15:26;99161.91;;;-0.28;76.85
34177;BME280;20450;49.074;9.158;2022-12-16T08:17:53;99159.94;;;-0.26;77.03
34177;BME280;20450;49.074;9.158;2022-12-16T08:20:21;99167.91;;;-0.26;75.81
34177;BME280;20450;49.074;9.158;2022-12-16T08:22:50;99171.38;;;-0.25;75.87
34177;BME280;20450;49.074;9.158;2022-12-16T08:25:17;99179.47;;;-0.27;75.20
34177;BME280;20450;49.074;9.158;2022-12-16T08:27:44;99181.63;;;-0.30;74.94
34177;BME280;20450;49.074;9.158;2022-12-16T08:30:12;99182.13;;;-0.27;75.95
34177;BME280;20450;49.074;9.158;2022-12-16T08:32:38;99187.66;;;-0.20;75.95
34177;BME280;20450;49.074;9.158;2022-12-16T08:35:06;99185.53;;;-0.17;74.90
34177;BME280;20450;49.074;9.158;2022-12-16T08:37:35;99202.94;;;-0.14;75.17
34177;BME280;20450;49.074;9.158;2022-12-16T08:45:01;99216.13;;;-0.05;74.26
34177;BME280;20450;49.074;9.158;2022-12-16T08:49:10;99212.63;;;0.03;73.84
34177;BME280;20450;49.074;9.158;2022-12-16T08:51:51;99207.31;;;0.03;74.16
34177;BME280;20450;49.074;9.158;2022-12-16T08:54:21;99220.81;;;0.10;73.79
34177;BME280;20450;49.074;9.158;2022-12-16T08:56:48;99224.16;;;0.12;73.79
34177;BME280;20450;49.074;9.158;2022-12-16T08:59:15;99221.66;;;0.10;73.51
34177;BME280;20450;49.074;9.158;2022-12-16T09:01:44;99227.78;;;0.11;73.38
34177;BME280;20450;49.074;9.158;2022-12-16T09:04:12;99234.59;;;0.13;73.42
34177;BME280;20450;49.074;9.158;2022-12-16T09:06:39;99240.06;;;0.12;73.41
34177;BME280;20450;49.074;9.158;2022-12-16T09:09:07;99240.88;;;0.12;72.77
34177;BME280;20450;49.074;9.158;2022-12-16T09:11:34;99235.41;;;0.14;73.41
34177;BME280;20450;49.074;9.158;2022-12-16T09:14:02;99242.75;;;0.20;73.60
34177;BME280;20450;49.074;9.158;2022-12-16T09:16:29;99247.59;;;0.24;73.50
34177;BME280;20450;49.074;9.158;2022-12-16T09:18:58;99252.41;;;0.29;73.22
34177;BME280;20450;49.074;9.158;2022-12-16T09:21:24;99253.59;;;0.26;72.41
34177;BME280;20450;49.074;9.158;2022-12-16T09:23:58;99259.06;;;0.25;72.39
34177;BME280;20450;49.074;9.158;2022-12-16T09:26:25;99263.53;;;0.24;72.19
34177;BME280;20450;49.074;9.158;2022-12-16T09:28:52;99259.69;;;0.19;72.80
34177;BME280;20450;49.074;9.158;2022-12-16T09:31:20;99270.63;;;0.16;73.03
34177;BME280;20450;49.074;9.158;2022-12-16T09:33:47;99271.47;;;0.16;73.04
34177;BME280;20450;49.074;9.158;2022-12-16T09:36:15;99266.16;;;0.16;72.43
34177;BME280;20450;49.074;9.158;2022-12-16T09:38:42;99273.81;;;0.27;72.21
34177;BME280;20450;49.074;9.158;2022-12-16T09:41:22;99271.53;;;0.32;72.11
34177;BME280;20450;49.074;9.158;2022-12-16T09:44:02;99277.38;;;0.36;72.01
34177;BME280;20450;49.074;9.158;2022-12-16T09:46:48;99274.09;;;0.42;72.02
34177;BME280;20450;49.074;9.158;2022-12-16T09:49:39;99274.41;;;0.47;71.23
34177;BME280;20450;49.074;9.158;2022-12-16T09:52:16;99278.94;;;0.54;71.45
34177;BME280;20450;49.074;9.158;2022-12-16T09:54:46;99279.28;;;0.59;71.50
34177;BME280;20450;49.074;9.158;2022-12-16T09:57:15;99275.31;;;0.63;71.64
34177;BME280;20450;49.074;9.158;2022-12-16T09:59:50;99275.84;;;0.67;72.04
34177;BME280;20450;49.074;9.158;2022-12-16T10:02:23;99277.13;;;0.63;70.66
34177;BME280;20450;49.074;9.158;2022-12-16T10:04:51;99279.66;;;0.72;69.37
34177;BME280;20450;49.074;9.158;2022-12-16T10:07:20;99274.22;;;0.82;67.75
34177;BME280;20450;49.074;9.158;2022-12-16T10:09:57;99275.91;;;0.91;66.48
34177;BME280;20450;49.074;9.158;2022-12-16T10:12:38;99275.56;;;1.02;67.04
34177;BME280;20450;49.074;9.158;2022-12-16T10:15:22;99276.78;;;1.23;64.79
34177;BME280;20450;49.074;9.158;2022-12-16T10:17:58;99282.44;;;1.52;63.74
34177;BME280;20450;49.074;9.158;2022-12-16T10:20:37;99283.44;;;1.75;62.46
34177;BME280;20450;49.074;9.158;2022-12-16T10:23:16;99281.09;;;1.88;62.08
34177;BME280;20450;49.074;9.158;2022-12-16T10:25:55;99283.41;;;1.91;60.99
34177;BME280;20450;49.074;9.158;2022-12-16T10:28:41;99281.38;;;1.93;60.52
34177;BME280;20450;49.074;9.158;2022-12-16T10:31:12;99277.06;;;2.00;60.27
34177;BME280;20450;49.074;9.158;2022-12-16T10:33:44;99283.88;;;2.03;59.96
34177;BME280;20450;49.074;9.158;2022-12-16T10:36:17;99280.81;;;2.30;59.45
34177;BME280;20450;49.074;9.158;2022-12-16T10:38:51;99280.72;;;2.93;57.21
34177;BME280;20450;49.074;9.158;2022-12-16T10:41:24;99281.97;;;3.27;55.93
34177;BME280;20450;49.074;9.158;2022-12-16T10:43:57;99281.38;;;3.62;54.04
34177;BME280;20450;49.074;9.158;2022-12-16T10:46:27;99281.94;;;3.58;53.17
34177;BME280;20450;49.074;9.158;2022-12-16T10:48:58;99296.13;;;3.36;54.15
34177;BME280;20450;49.074;9.158;2022-12-16T10:51:28;99291.16;;;3.02;55.51
34177;BME280;20450;49.074;9.158;2022-12-16T10:54:04;99298.41;;;2.86;55.39
34177;BME280;20450;49.074;9.158;2022-12-16T10:56:54;99300.09;;;2.87;55.86
34177;BME280;20450;49.074;9.158;2022-12-16T10:59:35;99301.41;;;2.83;56.10
34177;BME280;20450;49.074;9.158;2022-12-16T11:02:18;99295.38;;;2.89;56.36
34177;BME280;20450;49.074;9.158;2022-12-16T11:04:50;99298.38;;;2.94;55.91
34177;BME280;20450;49.074;9.158;2022-12-16T11:07:27;99304.91;;;2.91;55.82
34177;BME280;20450;49.074;9.158;2022-12-16T11:09:58;99305.25;;;2.88;55.91
34177;BME280;20450;49.074;9.158;2022-12-16T11:12:28;99302.97;;;3.08;55.27
34177;BME280;20450;49.074;9.158;2022-12-16T11:14:56;99314.09;;;3.42;54.59
34177;BME280;20450;49.074;9.158;2022-12-16T11:18:00;99305.13;;;3.57;53.07
34177;BME280;20450;49.074;9.158;2022-12-16T11:20:28;99307.91;;;3.64;52.59
34177;BME280;20450;49.074;9.158;2022-12-16T11:23:15;99300.81;;;3.93;52.38
34177;BME280;20450;49.074;9.158;2022-12-16T11:25:45;99301.31;;;4.12;53.89
34177;BME280;20450;49.074;9.158;2022-12-16T11:28:15;99310.13;;;5.35;51.54
34177;BME280;20450;49.074;9.158;2022-12-16T11:30:49;99307.53;;;5.62;47.52
34177;BME280;20450;49.074;9.158;2022-12-16T11:33:23;99309.63;;;5.25;49.50
34177;BME280;20450;49.074;9.158;2022-12-16T11:36:02;99309.66;;;4.96;50.44
34177;BME280;20450;49.074;9.158;2022-12-16T11:38:39;99310.72;;;4.51;52.78
34177;BME280;20450;49.074;9.158;2022-12-16T11:41:20;99319.03;;;4.42;53.21
34177;BME280;20450;49.074;9.158;2022-12-16T11:43:53;99319.34;;;4.09;53.82
34177;BME280;20450;49.074;9.158;2022-12-16T11:46:24;99333.88;;;3.92;52.55
34177;BME280;20450;49.074;9.158;2022-12-16T11:48:55;99335.03;;;3.75;51.63
34177;BME280;20450;49.074;9.158;2022-12-16T11:51:29;99328.47;;;3.78;52.62
34177;BME280;20450;49.074;9.158;2022-12-16T11:54:04;99332.72;;;3.72;52.07
34177;BME280;20450;49.074;9.158;2022-12-16T11:56:42;99344.88;;;3.75;51.20
34177;BME280;20450;49.074;9.158;2022-12-16T11:59:16;99346.84;;;3.58;51.56
34177;BME280;20450;49.074;9.158;2022-12-16T12:01:52;99347.84;;;3.57;51.77
34177;BME280;20450;49.074;9.158;2022-12-16T12:04:24;99347.56;;;3.52;52.22
34177;BME280;20450;49.074;9.158;2022-12-16T12:07:03;99352.91;;;3.52;52.26
34177;BME280;20450;49.074;9.158;2022-12-16T12:09:50;99354.72;;;3.52;53.13
34177;BME280;20450;49.074;9.158;2022-12-16T12:12:31;99360.59;;;3.47;52.87
34177;BME280;20450;49.074;9.158;2022-12-16T12:15:13;99365.38;;;3.29;53.46
34177;BME280;20450;49.074;9.158;2022-12-16T12:17:51;99362.72;;;3.29;53.04
34177;BME280;20450;49.074;9.158;2022-12-16T12:20:37;99369.88;;;3.29;53.56
34177;BME280;20450;49.074;9.158;2022-12-16T12:23:10;99371.84;;;3.35;53.69
34177;BME280;20450;49.074;9.158;2022-12-16T12:25:49;99375.91;;;3.53;53.38
34177;BME280;20450;49.074;9.158;2022-12-16T12:28:43;99373.78;;;3.71;52.24
34177;BME280;20450;49.074;9.158;2022-12-16T12:31:27;99375.34;;;3.66;52.60
34177;BME280;20450;49.074;9.158;2022-12-16T12:34:08;99392.81;;;3.46;52.79
34177;BME280;20450;49.074;9.158;2022-12-16T12:36:50;99388.69;;;3.35;52.95
34177;BME280;20450;49.074;9.158;2022-12-16T12:39:31;99386.81;;;3.44;52.30
34177;BME280;20450;49.074;9.158;2022-12-16T12:42:15;99391.59;;;3.56;53.03
34177;BME280;20450;49.074;9.158;2022-12-16T12:45:03;99394.13;;;3.50;52.42
34177;BME280;20450;49.074;9.158;2022-12-16T12:48:01;99395.03;;;3.65;51.81
34177;BME280;20450;49.074;9.158;2022-12-16T12:50:38;99385.69;;;3.38;51.61
34177;BME280;20450;49.074;9.158;2022-12-16T12:53:22;99395.69;;;3.36;52.16
34177;BME280;20450;49.074;9.158;2022-12-16T12:56:07;99398.13;;;3.54;52.34
34177;BME280;20450;49.074;9.158;2022-12-16T12:58:45;99395.75;;;4.04;56.78
34177;BME280;20450;49.074;9.158;2022-12-16T13:01:19;99390.94;;;3.99;55.22
34177;BME280;20450;49.074;9.158;2022-12-16T13:03:55;99396.88;;;3.64;51.84
34177;BME280;20450;49.074;9.158;2022-12-16T13:06:27;99395.66;;;3.44;53.23
34177;BME280;20450;49.074;9.158;2022-12-16T13:08:56;99404.03;;;3.11;53.48
34177;BME280;20450;49.074;9.158;2022-12-16T13:11:24;99394.56;;;3.00;54.11
34177;BME280;20450;49.074;9.158;2022-12-16T13:14:00;99402.56;;;2.92;54.70
34177;BME280;20450;49.074;9.158;2022-12-16T13:19:52;99409.97;;;2.74;55.25
34177;BME280;20450;49.074;9.158;2022-12-16T13:22:28;99413.34;;;2.60;56.07
34177;BME280;20450;49.074;9.158;2022-12-16T13:24:57;99413.19;;;2.54;55.66
34177;BME280;20450;49.074;9.158;2022-12-16T13:27:25;99405.72;;;2.25;56.65
34177;BME280;20450;49.074;9.158;2022-12-16T13:30:00;99416.72;;;2.22;56.36
34177;BME280;20450;49.074;9.158;2022-12-16T13:32:31;99414.56;;;2.10;56.87
34177;BME280;20450;49.074;9.158;2022-12-16T13:34:59;99418.75;;;2.20;57.17
34177;BME280;20450;49.074;9.158;2022-12-16T13:37:27;99424.22;;;2.27;57.18
34177;BME280;20450;49.074;9.158;2022-12-16T13:40:03;99422.34;;;2.35;56.71
34177;BME280;20450;49.074;9.158;2022-12-16T13:42:48;99439.03;;;2.37;57.38
34177;BME280;20450;49.074;9.158;2022-12-16T13:45:29;99439.56;;;2.25;56.04
34177;BME280;20450;49.074;9.158;2022-12-16T13:48:03;99447.38;;;2.18;56.79